sensor_id;sensor_type;location;lat;lon;timestamp;P1;durP1;ratioP1;P2;durP2;ratioP2
73779;SDS011;62093;37.614;15.072;2024-03-02T00:00:53;4.95;;;2.00;;
73779;SDS011;62093;37.614;15.072;2024-03-02T00:03:19;4.78;;;1.95;;
73779;SDS011;62093;37.614;15.072;2024-03-02T00:05:51;5.27;;;2.40;;
73779;SDS011;62093;37.614;15.072;2024-03-02T00:08:19;4.20;;;2.05;;
73779;SDS011;62093;37.614;15.072;2024-03-02T00:10:51;5.57;;;2.38;;
73779;SDS011;62093;37.614;15.072;2024-03-02T00:13:19;5.20;;;2.25;;
73779;SDS011;62093;37.614;15.072;2024-03-02T00:15:55;4.88;;;2.30;;
73779;SDS011;62093;37.614;15.072;2024-03-02T00:20:56;5.20;;;2.00;;
73779;SDS011;62093;37.614;15.072;2024-03-02T00:23:23;5.50;;;1.88;;
73779;SDS011;62093;37.614;15.072;2024-03-02T00:25:50;4.72;;;1.90;;
73779;SDS011;62093;37.614;15.072;2024-03-02T00:28:30;4.57;;;1.98;;
73779;SDS011;62093;37.614;15.072;2024-03-02T00:33:41;4.95;;;2.08;;
73779;SDS011;62093;37.614;15.072;2024-03-02T00:36:09;5.32;;;1.92;;
73779;SDS011;62093;37.614;15.072;2024-03-02T00:38:46;4.30;;;1.92;;
73779;SDS011;62093;37.614;15.072;2024-03-02T00:41:24;5.22;;;2.08;;
73779;SDS011;62093;37.614;15.072;2024-03-02T00:46:27;4.60;;;2.00;;
73779;SDS011;62093;37.614;15.072;2024-03-02T00:48:58;5.28;;;1.92;;
73779;SDS011;62093;37.614;15.072;2024-03-02T00:51:30;4.45;;;1.90;;
73779;SDS011;62093;37.614;15.072;2024-03-02T00:54:01;4.25;;;1.83;;
73779;SDS011;62093;37.614;15.072;2024-03-02T00:56:29;4.70;;;1.87;;
73779;SDS011;62093;37.614;15.072;2024-03-02T00:58:56;4.20;;;1.90;;
73779;SDS011;62093;37.614;15.072;2024-03-02T01:01:23;4.78;;;2.00;;
73779;SDS011;62093;37.614;15.072;2024-03-02T01:03:49;4.18;;;1.73;;
73779;SDS011;62093;37.614;15.072;2024-03-02T01:06:15;4.88;;;1.77;;
73779;SDS011;62093;37.614;15.072;2024-03-02T01:08:41;4.50;;;1.90;;
73779;SDS011;62093;37.614;15.072;2024-03-02T01:11:07;4.60;;;1.80;;
73779;SDS011;62093;37.614;15.072;2024-03-02T01:13:34;4.63;;;1.92;;
73779;SDS011;62093;37.614;15.072;2024-03-02T01:16:00;4.28;;;1.70;;
73779;SDS011;62093;37.614;15.072;2024-03-02T01:18:26;4.40;;;1.77;;
73779;SDS011;62093;37.614;15.072;2024-03-02T01:20:52;5.50;;;2.00;;
73779;SDS011;62093;37.614;15.072;2024-03-02T01:23:20;4.35;;;1.63;;
73779;SDS011;62093;37.614;15.072;2024-03-02T01:25:52;4.63;;;1.73;;
73779;SDS011;62093;37.614;15.072;2024-03-02T01:28:19;5.22;;;1.95;;
73779;SDS011;62093;37.614;15.072;2024-03-02T01:30:46;5.35;;;1.95;;
73779;SDS011;62093;37.614;15.072;2024-03-02T01:33:12;4.03;;;1.53;;
73779;SDS011;62093;37.614;15.072;2024-03-02T01:35:38;4.10;;;1.33;;
73779;SDS011;62093;37.614;15.072;2024-03-02T01:38:04;4.40;;;1.70;;
73779;SDS011;62093;37.614;15.072;2024-03-02T01:40:33;5.03;;;1.80;;
73779;SDS011;62093;37.614;15.072;2024-03-02T01:43:00;4.18;;;1.65;;
73779;SDS011;62093;37.614;15.072;2024-03-02T01:45:27;4.40;;;1.87;;
73779;SDS011;62093;37.614;15.072;2024-03-02T01:47:53;4.25;;;1.98;;
73779;SDS011;62093;37.614;15.072;2024-03-02T01:50:29;4.72;;;1.67;;
73779;SDS011;62093;37.614;15.072;2024-03-02T01:52:59;4.22;;;1.60;;
73779;SDS011;62093;37.614;15.072;2024-03-02T01:55:25;4.30;;;1.77;;
73779;SDS011;62093;37.614;15.072;2024-03-02T01:57:52;4.93;;;1.60;;
73779;SDS011;62093;37.614;15.072;2024-03-02T02:00:19;5.07;;;2.05;;
73779;SDS011;62093;37.614;15.072;2024-03-02T02:02:49;4.10;;;1.70;;
73779;SDS011;62093;37.614;15.072;2024-03-02T02:05:15;4.90;;;1.75;;
73779;SDS011;62093;37.614;15.072;2024-03-02T02:07:41;4.18;;;1.58;;
73779;SDS011;62093;37.614;15.072;2024-03-02T02:10:08;4.10;;;1.60;;
73779;SDS011;62093;37.614;15.072;2024-03-02T02:12:35;4.25;;;1.77;;
73779;SDS011;62093;37.614;15.072;2024-03-02T02:15:01;4.53;;;1.52;;
73779;SDS011;62093;37.614;15.072;2024-03-02T02:17:28;4.20;;;1.65;;
73779;SDS011;62093;37.614;15.072;2024-03-02T02:19:53;4.07;;;1.60;;
73779;SDS011;62093;37.614;15.072;2024-03-02T02:22:19;4.65;;;1.52;;
73779;SDS011;62093;37.614;15.072;2024-03-02T02:24:45;5.70;;;1.50;;
73779;SDS011;62093;37.614;15.072;2024-03-02T02:27:11;4.17;;;1.63;;
73779;SDS011;62093;37.614;15.072;2024-03-02T02:29:40;4.30;;;1.60;;
73779;SDS011;62093;37.614;15.072;2024-03-02T02:32:07;4.53;;;1.73;;
73779;SDS011;62093;37.614;15.072;2024-03-02T02:34:33;3.90;;;1.70;;
73779;SDS011;62093;37.614;15.072;2024-03-02T02:36:59;4.40;;;1.77;;
73779;SDS011;62093;37.614;15.072;2024-03-02T02:39:25;4.10;;;1.85;;
73779;SDS011;62093;37.614;15.072;2024-03-02T02:41:51;4.50;;;1.70;;
73779;SDS011;62093;37.614;15.072;2024-03-02T02:44:16;4.80;;;1.70;;
73779;SDS011;62093;37.614;15.072;2024-03-02T02:46:42;4.20;;;1.75;;
73779;SDS011;62093;37.614;15.072;2024-03-02T02:49:08;4.20;;;1.83;;
73779;SDS011;62093;37.614;15.072;2024-03-02T02:51:34;4.57;;;1.48;;
73779;SDS011;62093;37.614;15.072;2024-03-02T02:54:00;4.25;;;1.70;;
73779;SDS011;62093;37.614;15.072;2024-03-02T02:56:26;4.30;;;2.10;;
73779;SDS011;62093;37.614;15.072;2024-03-02T02:58:51;5.32;;;2.00;;
73779;SDS011;62093;37.614;15.072;2024-03-02T03:01:17;4.75;;;1.73;;
73779;SDS011;62093;37.614;15.072;2024-03-02T03:03:43;3.83;;;1.50;;
73779;SDS011;62093;37.614;15.072;2024-03-02T03:06:10;5.05;;;2.20;;
73779;SDS011;62093;37.614;15.072;2024-03-02T03:08:36;4.35;;;1.90;;
73779;SDS011;62093;37.614;15.072;2024-03-02T03:11:02;4.00;;;1.75;;
73779;SDS011;62093;37.614;15.072;2024-03-02T03:13:29;3.97;;;1.60;;
73779;SDS011;62093;37.614;15.072;2024-03-02T03:15:54;4.30;;;1.90;;
73779;SDS011;62093;37.614;15.072;2024-03-02T03:18:20;4.00;;;1.80;;
73779;SDS011;62093;37.614;15.072;2024-03-02T03:20:46;4.87;;;1.90;;
73779;SDS011;62093;37.614;15.072;2024-03-02T03:23:12;4.55;;;1.90;;
73779;SDS011;62093;37.614;15.072;2024-03-02T03:25:42;4.60;;;1.60;;
73779;SDS011;62093;37.614;15.072;2024-03-02T03:28:08;4.07;;;1.67;;
73779;SDS011;62093;37.614;15.072;2024-03-02T03:30:38;4.72;;;1.70;;
73779;SDS011;62093;37.614;15.072;2024-03-02T03:33:04;4.20;;;1.90;;
73779;SDS011;62093;37.614;15.072;2024-03-02T03:35:34;4.07;;;1.85;;
73779;SDS011;62093;37.614;15.072;2024-03-02T03:38:00;4.05;;;1.60;;
73779;SDS011;62093;37.614;15.072;2024-03-02T03:40:26;4.50;;;1.65;;
73779;SDS011;62093;37.614;15.072;2024-03-02T03:42:52;4.10;;;1.80;;
73779;SDS011;62093;37.614;15.072;2024-03-02T03:45:18;3.90;;;1.52;;
73779;SDS011;62093;37.614;15.072;2024-03-02T03:47:44;4.10;;;1.63;;
73779;SDS011;62093;37.614;15.072;2024-03-02T03:50:10;4.60;;;1.75;;
73779;SDS011;62093;37.614;15.072;2024-03-02T03:52:36;4.10;;;1.53;;
73779;SDS011;62093;37.614;15.072;2024-03-02T03:55:02;3.95;;;1.70;;
73779;SDS011;62093;37.614;15.072;2024-03-02T03:57:28;3.47;;;1.38;;
73779;SDS011;62093;37.614;15.072;2024-03-02T03:59:54;3.70;;;1.50;;
73779;SDS011;62093;37.614;15.072;2024-03-02T04:02:20;4.03;;;1.52;;
73779;SDS011;62093;37.614;15.072;2024-03-02T04:04:45;4.47;;;1.50;;
73779;SDS011;62093;37.614;15.072;2024-03-02T04:07:12;3.87;;;1.70;;
73779;SDS011;62093;37.614;15.072;2024-03-02T04:09:37;3.80;;;1.58;;
73779;SDS011;62093;37.614;15.072;2024-03-02T04:12:03;3.65;;;1.70;;
73779;SDS011;62093;37.614;15.072;2024-03-02T04:14:29;4.70;;;1.60;;
73779;SDS011;62093;37.614;15.072;2024-03-02T04:16:55;4.35;;;2.00;;
73779;SDS011;62093;37.614;15.072;2024-03-02T04:19:21;4.40;;;1.63;;
73779;SDS011;62093;37.614;15.072;2024-03-02T04:21:47;4.57;;;1.93;;
73779;SDS011;62093;37.614;15.072;2024-03-02T04:24:13;3.97;;;1.55;;
73779;SDS011;62093;37.614;15.072;2024-03-02T04:26:39;4.40;;;1.73;;
73779;SDS011;62093;37.614;15.072;2024-03-02T04:29:05;4.30;;;1.87;;
73779;SDS011;62093;37.614;15.072;2024-03-02T04:31:30;4.63;;;1.70;;
73779;SDS011;62093;37.614;15.072;2024-03-02T04:33:56;4.53;;;1.60;;
73779;SDS011;62093;37.614;15.072;2024-03-02T04:36:22;4.20;;;1.73;;
73779;SDS011;62093;37.614;15.072;2024-03-02T04:38:49;4.28;;;1.77;;
73779;SDS011;62093;37.614;15.072;2024-03-02T04:41:15;4.18;;;1.50;;
73779;SDS011;62093;37.614;15.072;2024-03-02T04:43:41;3.92;;;1.50;;
73779;SDS011;62093;37.614;15.072;2024-03-02T04:46:07;3.97;;;1.53;;
73779;SDS011;62093;37.614;15.072;2024-03-02T04:48:33;4.32;;;1.52;;
73779;SDS011;62093;37.614;15.072;2024-03-02T04:50:59;3.80;;;1.35;;
73779;SDS011;62093;37.614;15.072;2024-03-02T04:53:25;4.32;;;1.60;;
73779;SDS011;62093;37.614;15.072;2024-03-02T04:55:51;4.10;;;2.00;;
73779;SDS011;62093;37.614;15.072;2024-03-02T04:58:53;4.75;;;1.50;;
73779;SDS011;62093;37.614;15.072;2024-03-02T05:01:19;4.28;;;2.03;;
73779;SDS011;62093;37.614;15.072;2024-03-02T05:03:45;4.35;;;1.80;;
73779;SDS011;62093;37.614;15.072;2024-03-02T05:06:11;3.70;;;1.53;;
73779;SDS011;62093;37.614;15.072;2024-03-02T05:08:37;4.33;;;1.73;;
73779;SDS011;62093;37.614;15.072;2024-03-02T05:11:03;5.00;;;2.00;;
73779;SDS011;62093;37.614;15.072;2024-03-02T05:13:48;3.90;;;1.67;;
73779;SDS011;62093;37.614;15.072;2024-03-02T05:16:14;4.35;;;1.73;;
73779;SDS011;62093;37.614;15.072;2024-03-02T05:18:40;4.35;;;1.77;;
73779;SDS011;62093;37.614;15.072;2024-03-02T05:21:06;3.70;;;1.67;;
73779;SDS011;62093;37.614;15.072;2024-03-02T05:23:32;4.32;;;1.70;;
73779;SDS011;62093;37.614;15.072;2024-03-02T05:25:58;4.65;;;1.77;;
73779;SDS011;62093;37.614;15.072;2024-03-02T05:28:24;3.92;;;1.60;;
73779;SDS011;62093;37.614;15.072;2024-03-02T05:30:50;4.43;;;2.20;;
73779;SDS011;62093;37.614;15.072;2024-03-02T05:33:16;4.10;;;1.63;;
73779;SDS011;62093;37.614;15.072;2024-03-02T05:35:43;4.50;;;1.70;;
73779;SDS011;62093;37.614;15.072;2024-03-02T05:38:09;4.80;;;1.83;;
73779;SDS011;62093;37.614;15.072;2024-03-02T05:40:35;4.25;;;1.80;;
73779;SDS011;62093;37.614;15.072;2024-03-02T05:43:02;4.27;;;1.53;;
73779;SDS011;62093;37.614;15.072;2024-03-02T05:45:28;4.03;;;1.65;;
73779;SDS011;62093;37.614;15.072;2024-03-02T05:47:54;4.05;;;1.65;;
73779;SDS011;62093;37.614;15.072;2024-03-02T05:50:20;4.25;;;1.73;;
73779;SDS011;62093;37.614;15.072;2024-03-02T05:52:46;3.80;;;1.40;;
73779;SDS011;62093;37.614;15.072;2024-03-02T05:55:12;4.33;;;1.60;;
73779;SDS011;62093;37.614;15.072;2024-03-02T05:57:38;4.85;;;1.73;;
73779;SDS011;62093;37.614;15.072;2024-03-02T06:00:15;5.40;;;1.90;;
73779;SDS011;62093;37.614;15.072;2024-03-02T06:02:42;4.35;;;1.63;;
73779;SDS011;62093;37.614;15.072;2024-03-02T06:05:08;4.03;;;1.70;;
73779;SDS011;62093;37.614;15.072;2024-03-02T06:07:34;4.10;;;1.67;;
73779;SDS011;62093;37.614;15.072;2024-03-02T06:10:00;4.00;;;1.90;;
73779;SDS011;62093;37.614;15.072;2024-03-02T06:12:26;4.45;;;1.63;;
73779;SDS011;62093;37.614;15.072;2024-03-02T06:14:52;4.70;;;1.65;;
73779;SDS011;62093;37.614;15.072;2024-03-02T06:17:18;4.75;;;1.70;;
73779;SDS011;62093;37.614;15.072;2024-03-02T06:19:44;3.83;;;1.60;;
73779;SDS011;62093;37.614;15.072;2024-03-02T06:22:10;4.28;;;1.52;;
73779;SDS011;62093;37.614;15.072;2024-03-02T06:24:36;4.35;;;1.60;;
73779;SDS011;62093;37.614;15.072;2024-03-02T06:27:05;4.07;;;1.60;;
73779;SDS011;62093;37.614;15.072;2024-03-02T06:29:34;3.87;;;1.20;;
73779;SDS011;62093;37.614;15.072;2024-03-02T06:32:01;5.05;;;1.75;;
73779;SDS011;62093;37.614;15.072;2024-03-02T06:34:27;3.67;;;1.70;;
73779;SDS011;62093;37.614;15.072;2024-03-02T06:36:53;4.20;;;1.60;;
73779;SDS011;62093;37.614;15.072;2024-03-02T06:39:19;4.07;;;1.58;;
73779;SDS011;62093;37.614;15.072;2024-03-02T06:41:44;3.90;;;1.47;;
73779;SDS011;62093;37.614;15.072;2024-03-02T06:44:12;4.63;;;1.60;;
73779;SDS011;62093;37.614;15.072;2024-03-02T06:46:38;3.95;;;1.70;;
73779;SDS011;62093;37.614;15.072;2024-03-02T06:49:05;4.30;;;1.65;;
73779;SDS011;62093;37.614;15.072;2024-03-02T06:51:31;4.05;;;1.52;;
73779;SDS011;62093;37.614;15.072;2024-03-02T06:53:57;4.23;;;1.60;;
73779;SDS011;62093;37.614;15.072;2024-03-02T06:56:23;4.32;;;1.63;;
73779;SDS011;62093;37.614;15.072;2024-03-02T06:58:49;3.95;;;1.45;;
73779;SDS011;62093;37.614;15.072;2024-03-02T07:01:15;4.30;;;1.60;;
73779;SDS011;62093;37.614;15.072;2024-03-02T07:03:41;4.30;;;1.90;;
73779;SDS011;62093;37.614;15.072;2024-03-02T07:06:07;3.77;;;1.67;;
73779;SDS011;62093;37.614;15.072;2024-03-02T07:08:33;3.70;;;1.40;;
73779;SDS011;62093;37.614;15.072;2024-03-02T07:10:59;4.43;;;1.70;;
73779;SDS011;62093;37.614;15.072;2024-03-02T07:13:26;4.20;;;1.60;;
73779;SDS011;62093;37.614;15.072;2024-03-02T07:15:52;5.28;;;1.65;;
73779;SDS011;62093;37.614;15.072;2024-03-02T07:18:36;3.43;;;1.30;;
73779;SDS011;62093;37.614;15.072;2024-03-02T07:21:10;4.93;;;1.40;;
73779;SDS011;62093;37.614;15.072;2024-03-02T07:23:36;4.18;;;1.50;;
73779;SDS011;62093;37.614;15.072;2024-03-02T07:26:02;3.67;;;1.50;;
73779;SDS011;62093;37.614;15.072;2024-03-02T07:28:29;4.27;;;1.30;;
73779;SDS011;62093;37.614;15.072;2024-03-02T07:31:01;4.53;;;1.38;;
73779;SDS011;62093;37.614;15.072;2024-03-02T07:33:28;4.07;;;1.55;;
73779;SDS011;62093;37.614;15.072;2024-03-02T07:35:54;3.80;;;1.50;;
73779;SDS011;62093;37.614;15.072;2024-03-02T07:38:21;5.00;;;1.75;;
73779;SDS011;62093;37.614;15.072;2024-03-02T07:40:48;3.60;;;1.50;;
73779;SDS011;62093;37.614;15.072;2024-03-02T07:43:18;3.38;;;1.27;;
73779;SDS011;62093;37.614;15.072;2024-03-02T07:45:47;3.80;;;1.52;;
73779;SDS011;62093;37.614;15.072;2024-03-02T07:48:16;3.78;;;1.50;;
73779;SDS011;62093;37.614;15.072;2024-03-02T07:50:43;3.80;;;1.63;;
73779;SDS011;62093;37.614;15.072;2024-03-02T07:53:09;3.77;;;1.57;;
73779;SDS011;62093;37.614;15.072;2024-03-02T07:55:35;4.32;;;1.20;;
73779;SDS011;62093;37.614;15.072;2024-03-02T07:58:20;3.83;;;1.40;;
73779;SDS011;62093;37.614;15.072;2024-03-02T08:00:46;3.42;;;1.15;;
73779;SDS011;62093;37.614;15.072;2024-03-02T08:03:13;3.47;;;1.20;;
73779;SDS011;62093;37.614;15.072;2024-03-02T08:05:40;3.60;;;1.40;;
73779;SDS011;62093;37.614;15.072;2024-03-02T08:08:06;3.85;;;1.40;;
73779;SDS011;62093;37.614;15.072;2024-03-02T08:10:32;3.83;;;1.30;;
73779;SDS011;62093;37.614;15.072;2024-03-02T08:12:59;4.10;;;1.60;;
73779;SDS011;62093;37.614;15.072;2024-03-02T08:15:25;3.55;;;1.40;;
73779;SDS011;62093;37.614;15.072;2024-03-02T08:17:51;3.60;;;1.27;;
73779;SDS011;62093;37.614;15.072;2024-03-02T08:20:17;3.92;;;1.42;;
73779;SDS011;62093;37.614;15.072;2024-03-02T08:22:44;3.55;;;1.27;;
73779;SDS011;62093;37.614;15.072;2024-03-02T08:25:10;4.10;;;1.30;;
73779;SDS011;62093;37.614;15.072;2024-03-02T08:27:36;4.28;;;1.13;;
73779;SDS011;62093;37.614;15.072;2024-03-02T08:30:03;3.60;;;1.23;;
73779;SDS011;62093;37.614;15.072;2024-03-02T08:32:31;3.28;;;1.10;;
73779;SDS011;62093;37.614;15.072;2024-03-02T08:34:57;3.65;;;1.40;;
73779;SDS011;62093;37.614;15.072;2024-03-02T08:37:23;3.80;;;1.50;;
73779;SDS011;62093;37.614;15.072;2024-03-02T08:39:49;4.57;;;1.60;;
73779;SDS011;62093;37.614;15.072;2024-03-02T08:42:15;3.60;;;1.20;;
73779;SDS011;62093;37.614;15.072;2024-03-02T08:44:41;3.45;;;1.40;;
73779;SDS011;62093;37.614;15.072;2024-03-02T08:47:08;4.37;;;1.63;;
73779;SDS011;62093;37.614;15.072;2024-03-02T08:49:35;3.90;;;1.35;;
73779;SDS011;62093;37.614;15.072;2024-03-02T08:52:01;3.70;;;1.20;;
73779;SDS011;62093;37.614;15.072;2024-03-02T08:54:27;3.60;;;1.20;;
73779;SDS011;62093;37.614;15.072;2024-03-02T08:56:53;3.70;;;1.38;;
73779;SDS011;62093;37.614;15.072;2024-03-02T08:59:19;3.87;;;1.20;;
73779;SDS011;62093;37.614;15.072;2024-03-02T09:01:46;3.42;;;1.10;;
73779;SDS011;62093;37.614;15.072;2024-03-02T09:04:12;4.03;;;1.30;;
73779;SDS011;62093;37.614;15.072;2024-03-02T09:06:38;4.05;;;1.20;;
73779;SDS011;62093;37.614;15.072;2024-03-02T09:09:04;4.28;;;1.40;;
73779;SDS011;62093;37.614;15.072;2024-03-02T09:11:30;3.90;;;1.60;;
73779;SDS011;62093;37.614;15.072;2024-03-02T09:13:57;3.53;;;1.25;;
73779;SDS011;62093;37.614;15.072;2024-03-02T09:16:24;3.67;;;1.25;;
73779;SDS011;62093;37.614;15.072;2024-03-02T09:18:56;3.78;;;1.38;;
73779;SDS011;62093;37.614;15.072;2024-03-02T09:21:22;3.88;;;1.20;;
73779;SDS011;62093;37.614;15.072;2024-03-02T09:23:48;3.60;;;1.37;;
73779;SDS011;62093;37.614;15.072;2024-03-02T09:26:15;3.92;;;1.23;;
73779;SDS011;62093;37.614;15.072;2024-03-02T09:28:44;4.28;;;1.30;;
73779;SDS011;62093;37.614;15.072;2024-03-02T09:31:10;3.90;;;1.40;;
73779;SDS011;62093;37.614;15.072;2024-03-02T09:33:37;3.50;;;1.15;;
73779;SDS011;62093;37.614;15.072;2024-03-02T09:36:04;3.80;;;1.50;;
73779;SDS011;62093;37.614;15.072;2024-03-02T09:38:34;3.70;;;1.30;;
73779;SDS011;62093;37.614;15.072;2024-03-02T09:41:00;3.53;;;1.20;;
73779;SDS011;62093;37.614;15.072;2024-03-02T09:43:26;3.63;;;1.40;;
73779;SDS011;62093;37.614;15.072;2024-03-02T09:45:52;4.40;;;1.40;;
73779;SDS011;62093;37.614;15.072;2024-03-02T09:48:18;3.27;;;1.27;;
73779;SDS011;62093;37.614;15.072;2024-03-02T09:50:46;3.58;;;1.30;;
73779;SDS011;62093;37.614;15.072;2024-03-02T09:53:12;3.92;;;1.52;;
73779;SDS011;62093;37.614;15.072;2024-03-02T09:55:40;3.38;;;1.20;;
73779;SDS011;62093;37.614;15.072;2024-03-02T09:58:09;4.10;;;1.10;;
73779;SDS011;62093;37.614;15.072;2024-03-02T10:00:35;3.43;;;1.40;;
73779;SDS011;62093;37.614;15.072;2024-03-02T10:03:01;3.70;;;1.27;;
73779;SDS011;62093;37.614;15.072;2024-03-02T10:05:28;3.40;;;1.17;;
73779;SDS011;62093;37.614;15.072;2024-03-02T10:08:00;3.30;;;1.20;;
73779;SDS011;62093;37.614;15.072;2024-03-02T10:10:35;3.53;;;1.30;;
73779;SDS011;62093;37.614;15.072;2024-03-02T10:13:09;3.70;;;1.30;;
73779;SDS011;62093;37.614;15.072;2024-03-02T10:15:36;3.45;;;1.30;;
73779;SDS011;62093;37.614;15.072;2024-03-02T10:18:04;3.38;;;1.27;;
73779;SDS011;62093;37.614;15.072;2024-03-02T10:20:30;3.83;;;1.20;;
73779;SDS011;62093;37.614;15.072;2024-03-02T10:23:14;4.13;;;1.45;;
73779;SDS011;62093;37.614;15.072;2024-03-02T10:25:42;3.53;;;1.43;;
73779;SDS011;62093;37.614;15.072;2024-03-02T10:28:09;3.58;;;1.15;;
73779;SDS011;62093;37.614;15.072;2024-03-02T10:30:35;3.72;;;1.33;;
73779;SDS011;62093;37.614;15.072;2024-03-02T10:33:02;3.92;;;1.25;;
73779;SDS011;62093;37.614;15.072;2024-03-02T10:35:28;3.40;;;1.10;;
73779;SDS011;62093;37.614;15.072;2024-03-02T10:37:56;3.67;;;1.40;;
73779;SDS011;62093;37.614;15.072;2024-03-02T10:40:24;4.00;;;1.30;;
73779;SDS011;62093;37.614;15.072;2024-03-02T10:42:51;3.53;;;1.20;;
73779;SDS011;62093;37.614;15.072;2024-03-02T10:45:19;3.75;;;1.10;;
73779;SDS011;62093;37.614;15.072;2024-03-02T10:47:46;3.40;;;1.20;;
73779;SDS011;62093;37.614;15.072;2024-03-02T10:50:13;4.07;;;1.43;;
73779;SDS011;62093;37.614;15.072;2024-03-02T10:52:39;3.50;;;1.23;;
73779;SDS011;62093;37.614;15.072;2024-03-02T10:55:09;4.38;;;1.20;;
73779;SDS011;62093;37.614;15.072;2024-03-02T10:57:42;3.92;;;1.38;;
73779;SDS011;62093;37.614;15.072;2024-03-02T11:00:16;3.57;;;1.37;;
73779;SDS011;62093;37.614;15.072;2024-03-02T11:02:51;3.67;;;1.40;;
73779;SDS011;62093;37.614;15.072;2024-03-02T11:05:27;4.35;;;1.70;;
73779;SDS011;62093;37.614;15.072;2024-03-02T11:08:00;3.55;;;1.27;;
73779;SDS011;62093;37.614;15.072;2024-03-02T11:10:38;3.40;;;1.38;;
73779;SDS011;62093;37.614;15.072;2024-03-02T11:13:14;4.13;;;1.60;;
73779;SDS011;62093;37.614;15.072;2024-03-02T11:15:40;4.70;;;1.35;;
73779;SDS011;62093;37.614;15.072;2024-03-02T11:18:09;3.53;;;1.38;;
73779;SDS011;62093;37.614;15.072;2024-03-02T11:20:39;3.80;;;1.10;;
73779;SDS011;62093;37.614;15.072;2024-03-02T11:23:06;3.80;;;1.48;;
73779;SDS011;62093;37.614;15.072;2024-03-02T11:25:34;3.77;;;1.30;;
73779;SDS011;62093;37.614;15.072;2024-03-02T11:28:01;3.80;;;1.20;;
73779;SDS011;62093;37.614;15.072;2024-03-02T11:32:57;3.78;;;1.23;;
73779;SDS011;62093;37.614;15.072;2024-03-02T11:35:25;3.50;;;1.13;;
73779;SDS011;62093;37.614;15.072;2024-03-02T11:37:51;4.40;;;1.43;;
73779;SDS011;62093;37.614;15.072;2024-03-02T11:40:24;3.42;;;1.23;;
73779;SDS011;62093;37.614;15.072;2024-03-02T11:42:51;3.25;;;1.20;;
73779;SDS011;62093;37.614;15.072;2024-03-02T11:45:25;4.03;;;1.15;;
73779;SDS011;62093;37.614;15.072;2024-03-02T11:47:58;3.95;;;1.10;;
73779;SDS011;62093;37.614;15.072;2024-03-02T11:50:41;3.30;;;1.10;;
73779;SDS011;62093;37.614;15.072;2024-03-02T11:53:08;3.45;;;1.35;;
73779;SDS011;62093;37.614;15.072;2024-03-02T11:55:36;4.20;;;1.33;;
73779;SDS011;62093;37.614;15.072;2024-03-02T11:58:05;3.72;;;1.20;;
73779;SDS011;62093;37.614;15.072;2024-03-02T12:00:32;3.20;;;1.10;;
73779;SDS011;62093;37.614;15.072;2024-03-02T12:03:08;3.10;;;0.90;;
73779;SDS011;62093;37.614;15.072;2024-03-02T12:05:35;3.80;;;1.33;;
73779;SDS011;62093;37.614;15.072;2024-03-02T12:08:02;3.70;;;1.05;;
73779;SDS011;62093;37.614;15.072;2024-03-02T12:10:32;3.70;;;1.30;;
73779;SDS011;62093;37.614;15.072;2024-03-02T12:13:02;3.40;;;1.20;;
73779;SDS011;62093;37.614;15.072;2024-03-02T12:15:30;4.20;;;1.30;;
73779;SDS011;62093;37.614;15.072;2024-03-02T12:17:59;3.40;;;1.10;;
73779;SDS011;62093;37.614;15.072;2024-03-02T12:20:26;4.35;;;1.60;;
73779;SDS011;62093;37.614;15.072;2024-03-02T12:22:56;3.60;;;1.17;;
73779;SDS011;62093;37.614;15.072;2024-03-02T12:25:24;3.95;;;1.30;;
73779;SDS011;62093;37.614;15.072;2024-03-02T12:27:52;4.07;;;1.10;;
73779;SDS011;62093;37.614;15.072;2024-03-02T12:30:20;3.50;;;1.10;;
73779;SDS011;62093;37.614;15.072;2024-03-02T12:32:48;4.00;;;1.25;;
73779;SDS011;62093;37.614;15.072;2024-03-02T12:35:14;3.85;;;1.17;;
73779;SDS011;62093;37.614;15.072;2024-03-02T12:37:44;3.80;;;1.05;;
73779;SDS011;62093;37.614;15.072;2024-03-02T12:40:11;3.33;;;1.10;;
73779;SDS011;62093;37.614;15.072;2024-03-02T12:42:39;3.80;;;1.10;;
73779;SDS011;62093;37.614;15.072;2024-03-02T12:45:05;3.60;;;1.20;;
73779;SDS011;62093;37.614;15.072;2024-03-02T12:47:33;4.15;;;1.35;;
73779;SDS011;62093;37.614;15.072;2024-03-02T12:50:03;3.60;;;1.27;;
73779;SDS011;62093;37.614;15.072;2024-03-02T12:52:29;3.60;;;1.13;;
73779;SDS011;62093;37.614;15.072;2024-03-02T12:55:01;3.20;;;0.90;;
73779;SDS011;62093;37.614;15.072;2024-03-02T12:57:29;4.18;;;1.20;;
73779;SDS011;62093;37.614;15.072;2024-03-02T13:00:00;3.40;;;1.00;;
73779;SDS011;62093;37.614;15.072;2024-03-02T13:02:28;3.72;;;1.17;;
73779;SDS011;62093;37.614;15.072;2024-03-02T13:04:55;4.17;;;1.10;;
73779;SDS011;62093;37.614;15.072;2024-03-02T13:07:22;3.22;;;1.00;;
73779;SDS011;62093;37.614;15.072;2024-03-02T13:09:49;3.78;;;1.15;;
73779;SDS011;62093;37.614;15.072;2024-03-02T13:12:16;4.05;;;1.27;;
73779;SDS011;62093;37.614;15.072;2024-03-02T13:14:43;3.90;;;1.10;;
73779;SDS011;62093;37.614;15.072;2024-03-02T13:17:09;3.30;;;1.10;;
73779;SDS011;62093;37.614;15.072;2024-03-02T13:19:35;4.38;;;1.10;;
73779;SDS011;62093;37.614;15.072;2024-03-02T13:22:01;3.20;;;1.10;;
73779;SDS011;62093;37.614;15.072;2024-03-02T13:24:29;3.90;;;1.20;;
73779;SDS011;62093;37.614;15.072;2024-03-02T13:26:56;4.10;;;1.10;;
73779;SDS011;62093;37.614;15.072;2024-03-02T13:29:23;3.50;;;1.00;;
73779;SDS011;62093;37.614;15.072;2024-03-02T13:31:50;3.80;;;1.38;;
73779;SDS011;62093;37.614;15.072;2024-03-02T13:34:17;3.28;;;1.20;;
73779;SDS011;62093;37.614;15.072;2024-03-02T13:36:45;3.45;;;1.13;;
73779;SDS011;62093;37.614;15.072;2024-03-02T13:39:11;4.13;;;1.30;;
73779;SDS011;62093;37.614;15.072;2024-03-02T13:41:41;3.37;;;1.00;;
73779;SDS011;62093;37.614;15.072;2024-03-02T13:44:07;3.58;;;1.13;;
73779;SDS011;62093;37.614;15.072;2024-03-02T13:46:34;3.45;;;1.05;;
73779;SDS011;62093;37.614;15.072;2024-03-02T13:49:00;3.65;;;1.30;;
73779;SDS011;62093;37.614;15.072;2024-03-02T13:51:27;3.78;;;1.20;;
73779;SDS011;62093;37.614;15.072;2024-03-02T13:53:53;2.77;;;0.90;;
73779;SDS011;62093;37.614;15.072;2024-03-02T13:56:19;4.45;;;1.15;;
73779;SDS011;62093;37.614;15.072;2024-03-02T13:58:45;3.33;;;1.15;;
73779;SDS011;62093;37.614;15.072;2024-03-02T14:01:11;4.85;;;1.20;;
73779;SDS011;62093;37.614;15.072;2024-03-02T14:03:37;3.90;;;1.10;;
73779;SDS011;62093;37.614;15.072;2024-03-02T14:06:04;3.70;;;1.00;;
73779;SDS011;62093;37.614;15.072;2024-03-02T14:08:30;3.40;;;1.20;;
73779;SDS011;62093;37.614;15.072;2024-03-02T14:10:59;3.72;;;1.10;;
73779;SDS011;62093;37.614;15.072;2024-03-02T14:13:26;3.40;;;0.90;;
73779;SDS011;62093;37.614;15.072;2024-03-02T14:15:54;3.30;;;0.90;;
73779;SDS011;62093;37.614;15.072;2024-03-02T14:18:20;3.63;;;1.07;;
73779;SDS011;62093;37.614;15.072;2024-03-02T14:20:46;4.43;;;1.30;;
73779;SDS011;62093;37.614;15.072;2024-03-02T14:23:20;4.00;;;1.35;;
73779;SDS011;62093;37.614;15.072;2024-03-02T14:25:47;4.07;;;1.33;;
73779;SDS011;62093;37.614;15.072;2024-03-02T14:28:13;3.80;;;1.42;;
73779;SDS011;62093;37.614;15.072;2024-03-02T14:30:41;3.80;;;1.13;;
73779;SDS011;62093;37.614;15.072;2024-03-02T14:33:07;3.80;;;1.30;;
73779;SDS011;62093;37.614;15.072;2024-03-02T14:35:33;4.55;;;1.50;;
73779;SDS011;62093;37.614;15.072;2024-03-02T14:38:00;3.95;;;1.10;;
73779;SDS011;62093;37.614;15.072;2024-03-02T14:40:26;3.42;;;1.10;;
73779;SDS011;62093;37.614;15.072;2024-03-02T14:42:53;3.70;;;1.00;;
73779;SDS011;62093;37.614;15.072;2024-03-02T14:45:19;3.45;;;1.13;;